Tiempo atmosférico en la estación meteorológica de Villanueva De Córdoba, Córdoba (740 m.)



Fecha
DESCASC
Temp. máxima en grados centígrados (hora)
DESCASC
Temp. mínima en grados centígrados (hora)
DESCASC
Temp. media en grados centígrados
DESCASC
Racha de viento máxima en m/sg (hora)
DESCASC
Velocidad máxima media en intervalos de 10 minutos(hora)
DESCASC
Precipitaciones diarias en mm
DESCASC
Precipitaciones de 00:00 a 06:00 en mm
DESCASC
Precipitaciones de 06:00 a 12:00 en mm
DESCASC
Precipitaciones de 12:00 a 18:00 en mm
DESCASC
Precipitaciones de 18:00 a 24:00 en mm
DESCASC
15-11-2018 18.1 (16:30) 9.9 (08:40) 14 7.22 (04:10) 3.61 (11:20) 0 0 0 0 0
14-11-2018 17.2 (13:30) 10.1 (04:10) 13.7 8.89 (13:10) 4.17 (13:10) 0 0 0 0 0
13-11-2018 19.9 (15:30) 9.1 (08:10) 14.5 6.39 (22:40) 2.78 (22:50) 0 0 0 0 0
12-11-2018 14.1 (15:10) 8.3 (03:00) 11.2 6.67 (05:50) 3.33 (06:20) 1.2 0.2 0.6 0.4 0
11-11-2018 14.2 (17:40) 11 (00:00) 12.6 7.5 (02:30) 4.17 (02:30) 1.4 0.2 1.2 0 0
10-11-2018 11.3 (23:50) 7.9 (00:00) 9.6 8.89 (23:10) 4.72 (20:40) 0 0 0 0 0
09-11-2018 12 (15:00) 4.2 (00:00) 8.1 9.72 (14:00) 5.28 (14:20) 0.2 0 0.2 0 0
08-11-2018 11.9 (13:40) 6.3 (00:00) 9.1 19.72 (21:40) 7.78 (21:30) 17.8 0 0.4 10.4 7
07-11-2018 11.7 (18:00) 6.9 (00:00) 9.3 8.33 (11:30) 4.17 (11:40) 2.8 0 0.8 1.8 0.2
06-11-2018 11.4 (17:00) 4.3 (00:00) 7.8 8.06 (14:30) 4.72 (02:50) 0 0 0 0 0
05-11-2018 10.3 (00:00) 5.5 (00:00) 7.9 14.17 (01:30) 8.89 (15:50) 18 12.2 4.4 1.4 0
04-11-2018 15.2 (14:30) 7 (00:00) 11.1 11.39 (22:50) 5.83 (20:00) 0 0 0 0 0
03-11-2018 17.8 (15:20) 7 (00:00) 12.4 4.44 (15:50) 2.22 (00:30) 0.4 0.2 0.2 0 0
02-11-2018 14 (17:40) 6.6 (00:00) 10.3 7.22 (15:20) 4.44 (12:30) 0 0 0 0 0
01-11-2018 13.9 (15:50) 3.5 (00:00) 8.7 6.39 (10:30) 3.61 (10:30) 0.2 0 0.2 0 0
31-10-2018 8.6 (13:30) 4.6 (00:00) 6.6 10.83 (12:20) 5.83 (11:20) 2.6 1.6 1 0 0
30-10-2018 8.1 (12:40) 4.4 (00:00) 6.3 12.22 (13:30) 5.56 (11:30) 31 2 10.8 9.8 8.4
29-10-2018 10.5 (16:00) 0.7 (00:00) 5.6 12.22 (15:30) 6.94 (17:10) 0 0 0 0 0
28-10-2018 8.1 (15:30) 2.9 (00:00) 5.5 9.17 (15:50) 4.72 (14:20) -- -- -- 0 0
27-10-2018 16.3 (15:00) 6.3 (00:00) 11.3 13.61 (16:40) 8.61 (15:10) -- -- -- -- --
26-10-2018 15.8 (00:40) 12.5 (00:00) 14.2 4.44 (11:00) 2.78 (11:20) -- -- -- -- --
25-10-2018 24.5 (15:50) 13 (00:00) 18.8 6.39 (15:40) 2.78 (15:00) 0 0 0 0 0
24-10-2018 23.9 (16:00) 12.9 (00:00) 18.4 5.83 (16:20) 2.78 (05:20) 0 0 0 0 0
23-10-2018 22.9 (15:20) 13.4 (00:00) 18.1 5.83 (15:20) 2.78 (15:20) 0.4 0.2 0 0 0.2
22-10-2018 22.7 (18:00) 12.1 (00:00) 17.4 10.83 (15:00) 3.06 (00:40) 0.8 0.4 0.2 0 0.2
21-10-2018 19.7 (14:30) 12.8 (00:00) 16.3 11.94 (22:40) 6.67 (22:40) 0 0 0 0 0
20-10-2018 16.7 (11:50) 10.1 (00:00) 13.4 8.61 (14:00) 3.89 (13:20) 1.2 0 0 0.8 0.4
19-10-2018 18 (16:50) 8.4 (00:00) 13.2 6.94 (12:10) 3.61 (17:40) 4 2.8 1.2 0 0
18-10-2018 15.8 (00:00) 9.6 (00:00) 12.7 11.39 (15:50) 5.83 (15:50) 3.6 0 0.6 1.8 1.2

Gráficas

Temp. máximas Temp. mínimas Temp. medias Precipitaciones Rachas de viento máximas Velocidades máximas media en intervalos de 10 minutos

Datos horarios

Fecha y hora oficial Temperatura (ºC) Velocidad del viento (km/h) Dirección del viento Racha (km/h) Dirección de racha Precipitación (mm) Presión (hPa) Tendencia (hPa) Humedad (%)
2018-11-16 23:00:00 11.7 8 Este 15 Este 0 930.2 0.1 75
2018-11-16 22:00:00 12.6 7 Este 14 Este 0 930.2 0.1 71
2018-11-16 21:00:00 12.4 4 Sur 8 Sudeste 0 930.1 0.1 73
2018-11-16 20:00:00 12.9 6 Sudeste 12 Sur 0 930.1 0.3 70
2018-11-16 19:00:00 13.9 4 Este 6 Sur 0 930.1 0.4 69
2018-11-16 18:00:00 17.2 3 Sur 15 Sudeste 0 930 0.1 57
2018-11-16 17:00:00 18.3 5 Sudeste 18 Sudeste 0 929.8 -0.8 52
2018-11-16 16:00:00 18.7 7 Sudeste 18 Nordeste 0 929.7 -1.4 46
2018-11-16 15:00:00 18.4 8 Este 21 Este 0 929.9 -2 47
2018-11-16 14:00:00 18.4 5 Sur 16 Sur 0 930.6 -1.4 51
2018-11-16 13:00:00 17.4 7 Sudeste 18 Sudeste 0 931.1 -0.7 56
2018-11-16 12:00:00 15.9 7 Sudeste 23 Sudeste 0 931.9 0.6 62
2018-11-16 11:00:00 14.6 8 Sudeste 23 Sudeste 0 932 0.8 69
2018-11-16 10:00:00 11.8 9 Sudeste 17 Sudeste 0 931.8 0.8 78
2018-11-16 09:00:00 10.5 8 Este 15 Este 0 931.3 0.3 83
2018-11-16 08:00:00 11 6 Este 15 Sudeste 0 931.2 0 81
2018-11-16 07:00:00 11.3 5 Sudeste 12 Este 0 931 -0.3 80
2018-11-16 06:00:00 11.3 4 Este 10 Sudeste 0 931 -0.4 80
2018-11-16 05:00:00 10.8 5 Sudeste 9 Sudeste 0 931.2 -0.3 81
2018-11-16 04:00:00 11.2 5 Sudeste 8 Sudeste 0 931.3 -0.4 81
2018-11-16 03:00:00 11 3 Sudeste 8 Este 0 931.4 -0.1 80
2018-11-16 02:00:00 11.1 3 Sudeste 9 Sudeste 0 931.5 0.1 80
2018-11-16 01:00:00 10.9 4 Sur 13 Sur 0 931.7 0.6 80
2018-11-16 00:00:00 11.5 6 Sudeste 13 Sudeste 0 931.5 0.6 76
2018-11-15 23:00:00 11.6 3 Este 4 Sudeste 0 931.4 0.9 73
2018-11-15 22:00:00 11.8 2 Este 5 Sur 0 931.1 1 73
2018-11-15 21:00:00 11.6 5 Sudoeste 7 Sudoeste 0 930.9 1.3 75
2018-11-15 20:00:00 12.3 5 Sudoeste 9 Sudoeste 0 930.5 0.9 73
2018-11-15 19:00:00 13.3 6 Sur 8 Sudeste 0 930.1 0.9 69
2018-11-15 18:00:00 14.8 5 Este 9 Sudeste 0 929.6 0.1 63
2018-11-15 17:00:00 16.7 5 Este 12 Sur 0 929.6 -0.3 56
2018-11-15 16:00:00 17 4 Este 14 Este 0 929.2 -1.1 56
2018-11-15 15:00:00 17.2 6 Este 16 Este 0 929.5 -1.2 52
2018-11-15 14:00:00 15.7 6 Sudeste 16 Sudeste 0 929.9 -0.6 60
2018-11-15 13:00:00 15.7 8 Este 19 Nordeste 0 930.3 0.1 59
2018-11-15 12:00:00 15.1 7 Este 22 Este 0 930.7 0.9 64
2018-11-15 11:00:00 14 9 Nordeste 15 Nordeste 0 930.5 1 72
2018-11-15 10:00:00 11.9 6 Nordeste 14 Este 0 930.2 1.2 76
2018-11-15 09:00:00 10.4 5 Nordeste 15 Este 0 929.8 1.1 81
2018-11-15 08:00:00 10.7 7 Este 19 Sudeste 0 929.5 0.7 77
2018-11-15 07:00:00 10.9 8 Sudeste 19 Este 0 929 -0.3 76
2018-11-15 06:00:00 11.2 10 Este 23 Este 0 928.7 -0.6 75
2018-11-15 05:00:00 11.3 10 Este 26 Este 0 928.8 -1 76
2018-11-15 04:00:00 11.2 12 Este 24 Este 0 929.3 -1.1 76
2018-11-15 03:00:00 11 12 Este 22 Este 0 929.3 -1.3 79
2018-11-15 02:00:00 10.7 8 Este 20 Sudeste 0 929.8 -1.1 80
2018-11-15 01:00:00 11.8 10 Este 20 Sudeste 0 930.4 -0.5 76
2018-11-15 00:00:00 11.8 9 Este 21 Sudeste 0 930.6 -0.3 75
2018-11-14 23:00:00 12.1 9 Este 30 Este 0 930.9 -0.1 74
2018-11-14 22:00:00 12.6 8 Este 18 Este 0 930.9 -0.2 74
2018-11-14 21:00:00 13.2 8 Este 16 Sudeste 0 930.9 0 74
2018-11-14 20:00:00 13.3 8 Este 15 Este 0 931 -0.2 75
2018-11-14 19:00:00 13.6 6 Este 17 Este 0 931.1 -0.4 73
2018-11-14 18:00:00 14.9 8 Este 28 Este 0 930.9 -1 67
2018-11-14 17:00:00 16.1 8 Este 24 Este 0 931.2 -1.1 64
2018-11-14 16:00:00 16.3 10 Este 22 Este 0 931.5 -1.6 63
2018-11-14 15:00:00 16.6 7 Sudeste 24 Este 0 931.9 -1.8 61
2018-11-14 14:00:00 16.9 11 Sudeste 32 Este 0 932.3 -1.7 57
2018-11-14 13:00:00 16.5 13 Sudeste 26 Sudeste 0 933.1 -1.3 60
2018-11-14 12:00:00 14.6 10 Sudeste 22 Este 0 933.7 -0.5 69
2018-11-14 11:00:00 13.3 10 Sudeste 23 Sudeste 0 934 0.1 73
2018-11-14 10:00:00 12 9 Sudeste 20 Sudeste 0 934.4 0.4 74
2018-11-14 09:00:00 11.9 9 Sudeste 22 Sudeste 0 934.2 0.1 74
2018-11-14 08:00:00 11.7 9 Este 22 Este 0 933.9 -0.5 75
2018-11-14 07:00:00 11.3 10 Este 22 Este 0 934 -0.9 76
2018-11-14 06:00:00 10.8 10 Este 22 Este 0 934.1 -1.2 78
2018-11-14 05:00:00 10.8 13 Este 22 Este 0 934.4 -1 79
2018-11-14 04:00:00 10.4 7 Nordeste 19 Este 0 934.9 -1 80
2018-11-14 03:00:00 10.9 6 Este 22 Este 0 935.3 -0.4 79
2018-11-14 02:00:00 11.9 10 Este 22 Sudeste 0 935.4 -0.3 77
2018-11-14 01:00:00 12.4 10 Este 24 Este 0 935.9 0.2 76
2018-11-14 00:00:00 12.3 9 Este 20 Este 0 935.7 0 77
2018-11-13 23:00:00 12.4 9 Este 23 Este 0 935.7 0 75
2018-11-13 22:00:00 12.2 6 Este 13 Este 0 935.7 0.4 75
2018-11-13 21:00:00 11.8 6 Este 10 Nordeste 0 935.7 0.9 77
2018-11-13 20:00:00 12.6 6 Este 13 Este 0 935.7 1.2 73
2018-11-13 19:00:00 14.3 7 Este 15 Este 0 935.3 1 65
2018-11-13 18:00:00 16.1 8 Este 17 Este 0 934.8 0.6 56
2018-11-13 17:00:00 17.7 8 Este 17 Este 0 934.5 0.1 48
2018-11-13 16:00:00 18.4 9 Este 17 Este 0 934.3 -0.7 49
2018-11-13 15:00:00 19.2 8 Norte 19 Norte 0 934.2 -1.3 50
2018-11-13 14:00:00 18.5 6 Norte 19 Nordeste 0 934.4 -1.1 49
2018-11-13 13:00:00 18.1 8 Norte 15 Norte 0 935 -0.4 58
2018-11-13 12:00:00 17 7 Nordeste 15 Nordeste 0 935.5 0.6 58
2018-11-13 11:00:00 15.2 5 Norte 12 Norte 0 935.5 1.1 67
2018-11-13 10:00:00 13.4 6 Norte 12 Nordeste 0 935.4 1.3 73
2018-11-13 09:00:00 10.5 6 Este 12 Este 0 934.9 0.9 81
2018-11-13 08:00:00 9.2 5 Este 15 Este 0 934.4 0.6 84
2018-11-13 07:00:00 9.7 5 Este 13 Este 0 934.1 0.1 84
2018-11-13 06:00:00 10.5 6 Este 12 Este 0 934 0.1 81
2018-11-13 05:00:00 10.3 7 Este 9 Este 0 933.8 0 83
2018-11-13 04:00:00 9.9 5 Este 8 Este 0 934 0.5 87
2018-11-13 03:00:00 9.4 7 Este 11 Nordeste 0 933.9 0.7 92
2018-11-13 02:00:00 9.2 6 Nordeste 14 Norte 0 933.8 0.7 92
2018-11-13 01:00:00 9.3 7 Norte 14 Norte 0 933.5 0.8 93
2018-11-13 00:00:00 9.4 8 Norte 16 Norte 0 933.2 0.9 93
2018-11-12 23:00:00 9.6 7 Norte 14 Norte 0 933.1 1 92
2018-11-12 22:00:00 9.9 7 Norte 18 Noroeste 0 932.7 1.5 91
2018-11-12 21:00:00 10.1 8 Norte 17 Noroeste 0 932.3 2 89
2018-11-12 20:00:00 10.9 6 Noroeste 17 Oeste 0 932.1 2.1 88
2018-11-12 19:00:00 11.6 7 Sur 14 Sur 0 931.2 1.2 86
2018-11-12 18:00:00 12.7 6 Sudeste 15 Sudeste 0 930.3 0.4 84
2018-11-12 17:00:00 13.6 6 Sudeste 13 Sudeste 0 930 -0.2 78
2018-11-12 16:00:00 13.7 9 Sudeste 19 Sudeste 0 930 -0.2 73
2018-11-12 15:00:00 13.6 6 Sur 15 Sudeste 0.2 929.9 -1 78
2018-11-12 14:00:00 12.3 6 Sur 17 Sudeste 0 930.2 -0.2 85
2018-11-12 13:00:00 11.8 9 Sur 20 Sudeste 0.2 930.2 0.4 92
2018-11-12 12:00:00 11 9 Sur 18 Sudeste 0 930.9 1.9 91
2018-11-12 11:00:00 10.6 8 Sur 17 Sudeste 0.4 930.4 2.3 93
2018-11-12 10:00:00 10.5 2 Este 5 Nordeste 0.2 929.8 2.4 94
2018-11-12 09:00:00 10.2 0 Calma 9 Sur 0 929 1.9 94
2018-11-12 08:00:00 9.8 5 Sur 21 Sudeste 0 928.1 0.6 94
2018-11-12 07:00:00 9.5 8 Sudeste 22 Sudeste 0 927.4 -0.7 93
2018-11-12 06:00:00 9.5 12 Sudeste 24 Sudeste 0 927.1 -0.9 93
2018-11-12 05:00:00 9 9 Sudeste 20 Sudeste 0 927.5 -0.3 93
2018-11-12 04:00:00 8.4 6 Sur 18 Sudoeste 0 928.1 0.3 92
2018-11-12 03:00:00 8.4 8 Sur 17 Sur 0 928 0.2 92
2018-11-12 02:00:00 9.1 7 Sudoeste 14 Sur 0.2 927.8 0.4 92
2018-11-12 01:00:00 10 8 Sudoeste 14 Oeste 0 927.8 0.4 92
2018-11-12 00:00:00 11 8 Sur 22 Sudoeste 0 927.8 0.5 92
2018-11-11 23:00:00 11.7 9 Sur 18 Sur 0 927.4 0.6 92
2018-11-11 22:00:00 11.8 8 Sur 18 Sudeste 0 927.4 0.3 92
2018-11-11 21:00:00 11.9 8 Sur 18 Sur 0 927.3 0.2 92
2018-11-11 20:00:00 11.9 10 Sur 21 Sur 0 926.8 -0.5 91
2018-11-11 19:00:00 12.1 7 Sur 16 Sur 0 927.1 -0.4 88
2018-11-11 18:00:00 13.9 5 Sur 17 Sur 0 927.1 -0.9 83
2018-11-11 17:00:00 13.8 9 Sur 21 Sur 0 927.3 -1.6 85
2018-11-11 16:00:00 13.7 10 Sur 24 Sur 0 927.5 -2.4 85
2018-11-11 15:00:00 13.6 7 Sur 21 Sudeste 0 928 -2.9 89
2018-11-11 14:00:00 13.5 8 Sur 24 Sudeste 0 928.9 -2.3 93
2018-11-11 13:00:00 13.3 12 Sur 23 Sudeste 0 929.9 -1.5 94
2018-11-11 12:00:00 12.2 10 Sur 23 Sur 0.2 930.9 -0.4 94
2018-11-11 11:00:00 11.7 10 Sur 23 Sudeste 0.4 931.2 0.2 94
2018-11-11 10:00:00 11.6 8 Sur 20 Sur 0 931.4 0.5 94
2018-11-11 09:00:00 11.7 8 Sur 17 Sur 0.2 931.3 0.4 94
2018-11-11 08:00:00 11.5 7 Sur 12 Sur 0.2 931 0 94
2018-11-11 07:00:00 11.5 6 Sur 22 Sur 0.2 930.9 -0.5 94
2018-11-11 06:00:00 11.6 10 Sur 21 Sur 0 930.9 -0.7 94
2018-11-11 05:00:00 11.8 8 Sur 26 Sudoeste 0 931 -0.8 94
2018-11-11 04:00:00 11.8 13 Sudoeste 26 Sudoeste 0.2 931.4 -0.7 94
2018-11-11 03:00:00 11.8 10 Sur 27 Sudoeste 0 931.6 -0.7 94
2018-11-11 02:00:00 11.7 15 Sudoeste 27 Sur 0 931.8 -0.7 94
2018-11-11 01:00:00 11.5 14 Sur 27 Sur 0 932.1 -0.3 94
2018-11-11 00:00:00 11.3 12 Sur 32 Sur 0 932.3 -0.1 94
2018-11-10 23:00:00 11.1 14 Sur 31 Sur 0 932.5 0.3 94
2018-11-10 22:00:00 11 13 Sur 26 Sur 0 932.4 0.6 94
2018-11-10 21:00:00 10.8 13 Sur 30 Sur 0 932.4 0.5 94
2018-11-10 20:00:00 10.6 15 Sudoeste 30 Sudoeste 0 932.2 0.3 93
2018-11-10 19:00:00 10.3 15 Sur 31 Sur 0 931.8 -0.1 93
2018-11-10 18:00:00 10.2 12 Sur 25 Sudoeste 0 931.9 -0.4 91
2018-11-10 17:00:00 10.4 11 Sur 28 Sudoeste 0 931.9 -0.4 90
2018-11-10 16:00:00 10.7 13 Sudoeste 30 Sudoeste 0 931.9 -1 87
2018-11-10 15:00:00 10.8 12 Sudoeste 27 Sur 0 932.3 -1.5 88
2018-11-10 14:00:00 10.5 15 Sudoeste 31 Sur 0 932.3 -1.5 89
2018-11-10 13:00:00 9.9 14 Sur 26 Sudoeste 0 932.9 -0.9 90
2018-11-10 12:00:00 9.8 11 Sur 22 Sur 0 933.8 0.4 90
2018-11-10 11:00:00 9.6 10 Sur 21 Sudoeste 0 933.8 0.6 89
2018-11-10 10:00:00 8.9 6 Sur 17 Sur 0 933.8 0.7 90
2018-11-10 09:00:00 8.4 6 Sur 17 Sur 0 933.4 -0.1 89
2018-11-10 08:00:00 8.1 6 Sudoeste 11 Sur 0 933.2 -0.4 90
2018-11-10 07:00:00 8 5 Sur 11 Sur 0 933.1 -0.9 90
2018-11-10 06:00:00 8.1 5 Sudoeste 10 Sur 0 933.5 -0.7 89
2018-11-10 05:00:00 8.1 5 Sur 11 Sur 0 933.6 -1.2 88
2018-11-10 04:00:00 8.2 6 Sur 13 Sur 0 934 -0.9 87
2018-11-10 03:00:00 8.3 8 Sur 16 Sur 0 934.2 -1.2 86
2018-11-10 02:00:00 8.4 8 Sur 16 Sur 0 934.8 -1.1 84
2018-11-10 01:00:00 8.4 9 Sur 15 Sudoeste 0 934.9 -0.8 81
2018-11-10 00:00:00 8.2 6 Sur 12 Sur 0 935.4 -0.2 80
2018-11-09 23:00:00 8.3 7 Sudoeste 15 Sur 0 935.9 0.4 80
2018-11-09 22:00:00 8.4 6 Sudoeste 10 Sur 0 935.7 0.6 79
2018-11-09 21:00:00 8.2 4 Sur 10 Sudoeste 0 935.6 0.6 79
2018-11-09 20:00:00 8.4 4 Noroeste 11 Noroeste 0 935.5 1 73
2018-11-09 19:00:00 8.9 7 Noroeste 19 Noroeste 0 935.1 0.5 70
2018-11-09 18:00:00 10 9 Noroeste 24 Oeste 0 935 0.3 63
2018-11-09 17:00:00 10.7 11 Oeste 27 Noroeste 0 934.5 -0.8 62
2018-11-09 16:00:00 11 15 Oeste 31 Oeste 0 934.6 -1.6 59
2018-11-09 15:00:00 11.9 16 Oeste 30 Oeste 0 934.7 -1.6 60
2018-11-09 14:00:00 10.7 17 Oeste 35 Noroeste 0 935.3 -0.7 64
2018-11-09 13:00:00 9.9 15 Noroeste 34 Noroeste 0 936.2 0.4 69
2018-11-09 12:00:00 8.8 16 Noroeste 29 Noroeste 0 936.3 1.2 76
2018-11-09 11:00:00 7.6 15 Noroeste 33 Noroeste 0 936 1.4 85
2018-11-09 10:00:00 6.1 12 Noroeste 26 Oeste 0.2 935.8 1.6 94
2018-11-09 09:00:00 5.1 13 Noroeste 27 Noroeste 0 935.1 1.4 94
2018-11-09 08:00:00 4.3 8 Noroeste 19 Norte 0 934.6 1.3 93
2018-11-09 07:00:00 4.6 9 Noroeste 27 Noroeste 0 934.2 0.9 93
2018-11-09 06:00:00 4.9 13 Noroeste 28 Oeste 0 933.7 1.1 93
2018-11-09 05:00:00 5 14 Oeste 27 Oeste 0 933.3 0.8 93
2018-11-09 04:00:00 5.3 12 Oeste 23 Oeste 0 933.3 0.8 93
2018-11-09 03:00:00 5.3 10 Oeste 22 Oeste 0 932.6 0.4 92
2018-11-09 02:00:00 5.5 12 Noroeste 25 Noroeste 0 932.5 0.8 91
2018-11-09 01:00:00 5.9 13 Oeste 27 Noroeste 0 932.5 1.1 90
2018-11-09 00:00:00 6.4 13 Noroeste 30 Noroeste 0 932.2 1.8 89
2018-11-08 23:00:00 6.5 13 Noroeste 29 Oeste 0.8 931.7 1.6 87
2018-11-08 22:00:00 6.4 17 Noroeste 71 Oeste 5.8 931.4 1.8 89
2018-11-08 21:00:00 9.9 8 Oeste 28 Sudoeste 0.2 930.4 1.3 93
2018-11-08 20:00:00 9.4 11 Sudoeste 23 Sudoeste 0 930.1 1.7 92
2018-11-08 19:00:00 9.2 12 Sudoeste 30 Sudoeste 0.2 929.6 1 91
2018-11-08 18:00:00 9.8 23 Oeste 51 Oeste 2.2 929.1 0 93
2018-11-08 17:00:00 11.6 16 Sudoeste 33 Sudoeste 2.4 928.4 -1.4 94
2018-11-08 16:00:00 11.5 12 Sur 25 Sudoeste 1.6 928.6 -2.1 94
2018-11-08 15:00:00 11.4 10 Sur 30 Sur 0.8 929.1 -2.5 94
2018-11-08 14:00:00 11.7 12 Sur 28 Sur 0.8 929.8 -2.3 94
2018-11-08 13:00:00 11.7 12 Sur 24 Sudeste 2.6 930.7 -1.7 94
2018-11-08 12:00:00 11.6 10 Sur 22 Sur 0.2 931.6 -0.4 94
2018-11-08 11:00:00 10.8 11 Sur 22 Sur 0.2 932.1 0.3 94
2018-11-08 10:00:00 10 11 Sur 20 Sur 0 932.4 0.7 94
2018-11-08 09:00:00 9.2 9 Sudeste 20 Sudeste 0 932 0.1 94
2018-11-08 08:00:00 8.8 7 Sudeste 17 Sudeste 0 931.8 -0.2 94
2018-11-08 07:00:00 8.8 9 Sudeste 19 Sudeste 0 931.7 -0.7 94
2018-11-08 06:00:00 8.8 9 Sur 18 Sudeste 0 931.9 -0.5 94
2018-11-08 05:00:00 8.7 8 Sur 19 Sur 0 932 -0.5 94
2018-11-08 04:00:00 8.7 10 Sur 18 Sur 0 932.4 -0.8 94
2018-11-08 03:00:00 8.6 6 Sur 14 Sur 0 932.4 -0.8 94
2018-11-08 02:00:00 8.4 5 Sudeste 18 Sur 0 932.5 -0.8 94
2018-11-08 01:00:00 8.6 10 Sur 19 Sur 0 933.2 0.1 94
2018-11-08 00:00:00 8.3 8 Sur 17 Sur 0 933.2 0.4 94
2018-11-07 23:00:00 7.4 7 Sur 17 Sur 0.2 933.3 0.5 93
2018-11-07 22:00:00 8 6 Sur 11 Sur 0 933.1 0.9 93
2018-11-07 21:00:00 8.5 6 Sur 10 Sur 0 932.8 1 92
2018-11-07 20:00:00 8.7 5 Sur 9 Sur 0 932.8 1.3 91
2018-11-07 19:00:00 9.7 5 Sur 7 Sur 0 932.2 0.8 89
2018-11-07 18:00:00 11.7 2 Sudoeste 6 Oeste 0 931.8 0.6 91
2018-11-07 17:00:00 10.6 2 Noroeste 20 Noroeste 0.2 931.5 0.2 92
2018-11-07 16:00:00 10.8 10 Noroeste 17 Noroeste 0 931.4 0.4 91
2018-11-07 15:00:00 10.6 6 Noroeste 22 Oeste 0.8 931.2 0 93
2018-11-07 14:00:00 10.4 13 Oeste 27 Sudoeste 0.4 931.3 0.4 94
2018-11-07 13:00:00 10.3 13 Sudoeste 28 Sudoeste 0.4 931 0.7 94
2018-11-07 12:00:00 9.7 14 Sudoeste 30 Sudoeste 0.4 931.2 1.2 94
2018-11-07 11:00:00 9.2 13 Sur 27 Sur 0 930.9 1.6 94
2018-11-07 10:00:00 8.2 11 Sur 19 Sur 0 930.3 1.5 94
2018-11-07 09:00:00 7.7 11 Sur 21 Sur 0.2 930 1 93
2018-11-07 08:00:00 7.5 10 Sur 30 Sur 0.2 929.3 0.6 93
2018-11-07 07:00:00 7.8 14 Sur 28 Sur 0 928.8 -0.5 92
2018-11-07 06:00:00 7.7 10 Sur 21 Sur 0 929 -0.6 92
2018-11-07 05:00:00 7.7 10 Sur 18 Sur 0 928.7 -0.6 91
2018-11-07 04:00:00 7.4 5 Sur 15 Sur 0 929.3 -0.7 90
2018-11-07 03:00:00 7.2 5 Sur 18 Sudeste 0 929.6 -1 89
2018-11-07 02:00:00 7.5 8 Sur 18 Sur 0 929.3 -1.9 88
2018-11-07 01:00:00 7.2 6 Sur 14 Sur 0 930 -0.5 88
2018-11-07 00:00:00 6.9 8 Sur 17 Sur 0 930.6 0.3 88
2018-11-06 23:00:00 7.1 6 Sudoeste 14 Sur 0 931.2 0.9 89
2018-11-06 22:00:00 6.3 6 Sur 12 Sur 0 930.5 0.5 88
2018-11-06 21:00:00 6.8 8 Sur 15 Sur 0 930.3 0.5 86
2018-11-06 20:00:00 7.6 7 Sur 13 Sur 0 930.3 0.6 84
2018-11-06 19:00:00 8.5 8 Sur 17 Sur 0 930 0.4 82
2018-11-06 18:00:00 9.6 7 Sur 24 Sudoeste 0 929.8 0 78
2018-11-06 17:00:00 11.4 11 Sur 28 Sur 0 929.7 -0.1 71
2018-11-06 16:00:00 10.7 9 Sudoeste 22 Sudoeste 0 929.6 -0.9 70
2018-11-06 15:00:00 10.5 13 Sudoeste 29 Sudoeste 0 929.8 -1.2 72
2018-11-06 14:00:00 10.2 13 Oeste 23 Oeste 0 929.8 -1.1 68
2018-11-06 13:00:00 9.8 13 Sudoeste 24 Sudoeste 0 930.5 0 72
2018-11-06 12:00:00 9.7 14 Sudoeste 28 Sudoeste 0 931 1 71
2018-11-06 11:00:00 9.1 11 Sudoeste 22 Sudoeste 0 930.9 1.9 77
2018-11-06 10:00:00 7.3 11 Sudoeste 18 Sudoeste 0 930.5 1.9 85
2018-11-06 09:00:00 5.2 3 Sudoeste 14 Oeste 0 930 1.7 91
2018-11-06 08:00:00 5.1 7 Oeste 22 Oeste 0 929 1.2 91
2018-11-06 07:00:00 5.4 11 Oeste 22 Oeste 0 928.6 1 92
2018-11-06 06:00:00 5.1 13 Oeste 26 Oeste 0 928.3 0.9 92
2018-11-06 05:00:00 4.4 10 Oeste 17 Sudoeste 0 927.8 0.5 91
2018-11-06 04:00:00 4.6 9 Sudoeste 24 Sudoeste 0 927.6 0.5 90
2018-11-06 03:00:00 5 14 Sudoeste 26 Oeste 0 927.4 0.4 90
2018-11-06 02:00:00 5.1 14 Oeste 23 Oeste 0 927.3 0.7 89
2018-11-06 01:00:00 5.4 15 Oeste 24 Oeste 0 927.1 1.2 87
2018-11-06 00:00:00 5.5 14 Oeste 25 Oeste 0 927 1.6 86
2018-11-05 23:00:00 5.8 12 Sudoeste 23 Oeste 0 926.6 1.9 85
2018-11-05 22:00:00 6.2 15 Oeste 27 Sudoeste 0 925.9 2 82
2018-11-05 21:00:00 6.7 11 Oeste 34 Oeste 0 925.4 2.3 82
2018-11-05 20:00:00 7.4 19 Oeste 32 Oeste 0 924.7 2.2 75
2018-11-05 19:00:00 7.8 16 Oeste 40 Oeste 0 923.9 2.1 73
2018-11-05 18:00:00 8.6 20 Oeste 38 Oeste 0 923.1 1.5 73
2018-11-05 17:00:00 8.6 22 Oeste 39 Oeste 0 922.5 0.7 77
2018-11-05 16:00:00 9 28 Oeste 51 Oeste 0.2 921.8 0 78
2018-11-05 15:00:00 7.7 19 Oeste 42 Oeste 1.2 921.6 -0.5 82
2018-11-05 14:00:00 9.2 24 Oeste 45 Oeste 0 921.8 -0.1 68
2018-11-05 13:00:00 8.9 22 Oeste 37 Oeste 0 921.8 0.5 71
2018-11-05 12:00:00 8.3 15 Oeste 37 Sudoeste 0 922.1 1.2 77
2018-11-05 11:00:00 7.7 20 Oeste 34 Oeste 0 921.9 2.1 80
2018-11-05 10:00:00 7.3 18 Oeste 30 Sudoeste 0 921.3 1.9 89
2018-11-05 09:00:00 7.1 16 Oeste 34 Oeste 0 920.9 1.8 91
2018-11-05 08:00:00 7.8 15 Oeste 27 Oeste 1 919.8 1.7 91
2018-11-05 07:00:00 8.3 9 Oeste 28 Oeste 3.4 919.4 0.4 92
2018-11-05 06:00:00 8.6 23 Oeste 44 Oeste 7 919.1 -1.2 92
2018-11-05 05:00:00 9.5 18 Sur 41 Sur 2.2 918.1 -3 93
2018-11-05 04:00:00 9.4 22 Sur 45 Sur 0.6 919 -2.9 92
2018-11-05 03:00:00 9.2 18 Sur 42 Sudoeste 2.4 920.3 -2.2 91
2018-11-05 02:00:00 9.9 24 Sudoeste 51 Sudoeste 0 921.1 -2.6 83
2018-11-05 01:00:00 10 20 Sur 46 Sudoeste 0 921.9 -2 84
2018-11-05 00:00:00 10.3 16 Sur 40 Sudoeste 0 922.5 -2.9 87
2018-11-04 23:00:00 10.5 19 Sur 41 Sur 0 923.7 -2.2 88
2018-11-04 22:00:00 10.8 19 Sur 39 Sudoeste 0 923.9 -1.5 84
2018-11-04 21:00:00 10.8 10 Sudoeste 26 Sudoeste 0 925.4 -0.5 82
2018-11-04 20:00:00 10.8 21 Sudoeste 36 Sudoeste 0 925.9 0.1 83
2018-11-04 19:00:00 11 11 Sur 22 Sur 0 925.4 -1 81
2018-11-04 18:00:00 11.6 13 Sudoeste 27 Sur 0 925.9 -1.2 79
2018-11-04 17:00:00 12.6 12 Sur 23 Sudoeste 0 925.8 -2 75
2018-11-04 16:00:00 14.1 9 Sur 26 Sudoeste 0 926.4 -2.6 69
2018-11-04 15:00:00 14.4 12 Sur 24 Sudoeste 0 927.1 -2.8 69
2018-11-04 14:00:00 14.4 11 Sur 27 Sudoeste 0 927.8 -2.6 72
2018-11-04 13:00:00 13.3 13 Sudoeste 29 Sur 0 929 -1.7 77
2018-11-04 12:00:00 12.2 9 Sur 18 Sur 0 929.9 -0.5 82
2018-11-04 11:00:00 11.2 8 Sur 15 Sur 0 930.4 0.2 83
2018-11-04 10:00:00 9.6 7 Sur 15 Sur 0 930.7 0.7 83
2018-11-04 09:00:00 8 8 Sur 14 Sur 0 930.4 0.2 88
2018-11-04 08:00:00 7 8 Sur 12 Sudeste 0 930.2 -0.1 87
2018-11-04 07:00:00 7.3 5 Sur 7 Sur 0 930 -0.8 86
2018-11-04 06:00:00 7.4 5 Sudoeste 8 Sur 0 930.2 -1.3 84
2018-11-04 05:00:00 7.9 5 Sur 7 Sur 0 930.3 -1.5 81
2018-11-04 04:00:00 8.3 6 Sudeste 8 Sudeste 0 930.8 -1.8 82
2018-11-04 03:00:00 9 4 Oeste 6 Oeste 0 931.5 -1.4 77
2018-11-04 02:00:00 9.2 5 Sudoeste 7 Oeste 0 931.8 -1.5 80
2018-11-04 01:00:00 9.1 5 Sudoeste 8 Sudoeste 0 932.6 -0.7 78
2018-11-04 00:00:00 8.6 6 Sudoeste 8 Sudeste 0 932.9 -0.4 79
2018-11-03 23:00:00 9.9 6 Sudeste 10 Sudeste 0 933.3 -0.4 76
2018-11-03 22:00:00 9.9 5 Noroeste 8 Noroeste 0 933.3 0 69
2018-11-03 21:00:00 10.2 3 Sudoeste 7 Sur 0 933.3 0 77
2018-11-03 20:00:00 11.2 5 Sur 15 Sudeste 0 933.7 0.4 69
2018-11-03 19:00:00 12.9 7 Noroeste 10 Noroeste 0 933.3 -0.1 48
2018-11-03 18:00:00 15.7 6 Noroeste 14 Norte 0 933.3 -0.5 42
2018-11-03 17:00:00 17.3 6 Noroeste 14 Norte 0 933.3 -1.1 32
2018-11-03 16:00:00 17.6 5 Norte 16 Norte 0 933.4 -1.8 31
2018-11-03 15:00:00 17.6 4 Este 15 Oeste 0 933.8 -1.9 34
2018-11-03 14:00:00 16.8 6 Sudoeste 15 Sudoeste 0 934.4 -1.5 51
2018-11-03 13:00:00 16.5 6 Sur 14 Noroeste 0 935.2 -0.8 59
2018-11-03 12:00:00 15.5 6 Nordeste 15 Nordeste 0 935.7 -0.1 45
2018-11-03 11:00:00 14.4 4 Este 10 Este 0 935.9 0.3 54
2018-11-03 10:00:00 12.5 5 Este 10 Este 0.2 936 0.5 76
2018-11-03 09:00:00 8.9 5 Este 12 Este 0 935.8 -0.1 94
2018-11-03 08:00:00 8.2 5 Este 10 Nordeste 0 935.6 -0.4 94
2018-11-03 07:00:00 8.4 6 Nordeste 10 Nordeste 0 935.5 -0.7 94
2018-11-03 06:00:00 8.9 5 Nordeste 9 Norte 0 935.9 -0.8 94
2018-11-03 05:00:00 9.1 5 Norte 9 Norte 0 936 -0.9 94
2018-11-03 04:00:00 8.8 4 Noroeste 13 Noroeste 0 936.2 -1.1 94
2018-11-03 03:00:00 9 8 Noroeste 13 Norte 0.2 936.7 -1 94
2018-11-03 02:00:00 8.3 8 Noroeste 13 Noroeste 0 936.9 -1.1 94
2018-11-03 01:00:00 7.8 6 Sudoeste 12 Sur 0 937.3 -0.5 93
2018-11-03 00:00:00 7.4 7 Sur 12 Sur 0 937.7 0.4 93
2018-11-02 23:00:00 7.5 8 Sur 14 Sur 0 938 0.8 92
2018-11-02 22:00:00 7.8 7 Sur 11 Sur 0 937.8 0.9 90
2018-11-02 21:00:00 9.3 6 Sur 10 Sur 0 937.3 0.6 90
2018-11-02 20:00:00 9.9 6 Sur 12 Sur 0 937.2 0.7 88
2018-11-02 19:00:00 12.1 4 Sudoeste 8 Sudoeste 0 936.9 0.4 81
2018-11-02 18:00:00 13.8 5 Noroeste 21 Norte 0 936.7 0.2 77
2018-11-02 17:00:00 13.4 6 Norte 21 Norte 0 936.5 -0.2 79
2018-11-02 16:00:00 13.2 9 Norte 26 Noroeste 0 936.5 -0.2 82
2018-11-02 15:00:00 11.7 13 Noroeste 25 Noroeste 0 936.5 -0.8 94
2018-11-02 14:00:00 10.8 9 Noroeste 23 Noroeste 0 936.7 -0.5 94
2018-11-02 13:00:00 10.4 11 Noroeste 25 Noroeste 0 936.7 -0.1 94
2018-11-02 12:00:00 9.8 10 Noroeste 20 Noroeste 0 937.3 1.1 94
2018-11-02 11:00:00 9.2 9 Noroeste 21 Oeste 0 937.2 1.1 94
2018-11-02 10:00:00 8.7 7 Noroeste 15 Oeste 0 936.8 0.9 93
2018-11-02 09:00:00 7.7 7 Oeste 13 Oeste 0 936.2 0.5 93
2018-11-02 08:00:00 7.2 5 Noroeste 17 Noroeste 0 936.1 0.6 92
2018-11-02 07:00:00 6.8 8 Noroeste 14 Noroeste 0 935.9 0.1 91
2018-11-02 06:00:00 7.1 6 Oeste 12 Oeste 0 935.7 0.1 90
2018-11-02 05:00:00 7.1 8 Oeste 13 Oeste 0 935.5 -0.3 88
2018-11-02 04:00:00 7.3 6 Oeste 11 Oeste 0 935.8 -0.2 87
2018-11-02 03:00:00 7.2 6 Oeste 12 Oeste 0 935.6 -0.1 86
2018-11-02 02:00:00 7.3 8 Oeste 13 Oeste 0 935.8 0.1 84
2018-11-02 01:00:00 7.7 6 Oeste 12 Oeste 0 936 0.8 81
2018-11-02 00:00:00 7.5 6 Oeste 12 Oeste 0 935.7 0.9 79
2018-11-01 23:00:00 8 6 Noroeste 12 Noroeste 0 935.7 1.7 76
2018-11-01 22:00:00 7.8 6 Oeste 11 Noroeste 0 935.2 1.6 74
2018-11-01 21:00:00 8.3 5 Norte 15 Norte 0 934.8 2.2 72
2018-11-01 20:00:00 9.3 5 Noroeste 14 Noroeste 0 934 1.9 67
2018-11-01 19:00:00 10.1 7 Noroeste 13 Noroeste 0 933.6 1.8 65
2018-11-01 18:00:00 12.3 9 Noroeste 18 Noroeste 0 932.6 1.1 57
2018-11-01 17:00:00 13.3 9 Noroeste 19 Oeste 0 932.1 1.1 50
2018-11-01 16:00:00 13.4 10 Oeste 18 Oeste 0 931.8 0.1 50
2018-11-01 15:00:00 13.1 8 Norte 17 Noroeste 0 931.5 0 53
2018-11-01 14:00:00 12.1 6 Oeste 15 Norte 0 931 0.2 58
2018-11-01 13:00:00 10.2 11 Noroeste 18 Noroeste 0 931.7 1.7 72
2018-11-01 12:00:00 8 8 Noroeste 18 Norte 0 931.5 2.6 94
2018-11-01 11:00:00 6.1 11 Norte 23 Noroeste 0 930.8 3 94
2018-11-01 10:00:00 5.1 12 Noroeste 19 Noroeste 0 930 3.1 94
2018-11-01 09:00:00 4 6 Norte 16 Noroeste 0 928.9 3.1 94
2018-11-01 08:00:00 3.6 9 Norte 20 Noroeste 0.2 927.8 3 94
2018-11-01 07:00:00 4.2 9 Noroeste 18 Noroeste 0 926.9 2.3 94
2018-11-01 06:00:00 4 9 Norte 17 Norte 0 925.8 1.8 93
2018-11-01 05:00:00 4 10 Noroeste 17 Noroeste 0 924.8 1.3 93
2018-11-01 04:00:00 4 8 Noroeste 16 Norte 0 924.6 1.5 93
2018-11-01 03:00:00 4.2 8 Norte 21 Norte 0 924 1.4 93
2018-11-01 02:00:00 4.2 7 Norte 12 Norte 0 923.5 1.1 93
2018-11-01 01:00:00 4.3 4 Nordeste 10 Nordeste 0 923.1 1.5 92
2018-11-01 00:00:00 4.7 7 Nordeste 10 Nordeste 0 922.6 1.7 91
2018-10-31 23:00:00 5.8 5 Nordeste 9 Nordeste 0 922.4 2.2 91
2018-10-31 22:00:00 6.3 4 Este 14 Sudeste 0 921.6 1.7 90
2018-10-31 21:00:00 6.4 5 Este 12 Sudeste 0 920.9 0.6 89
2018-10-31 20:00:00 6.4 3 Sudeste 15 Sudeste 0 920.2 0 88
2018-10-31 19:00:00 6.8 8 Sudeste 19 Sudoeste 0 919.9 -0.4 84
2018-10-31 18:00:00 7.4 10 Sudoeste 23 Sudoeste 0 920.3 0.3 76
2018-10-31 17:00:00 7.9 12 Sudoeste 27 Sur 0 920.2 -0.1 80
2018-10-31 16:00:00 8.2 10 Sur 29 Sudoeste 0 920.3 -0.4 81
2018-10-31 15:00:00 8.1 15 Sur 29 Sudoeste 0 920 -1.4 78
2018-10-31 14:00:00 8.3 17 Sudoeste 32 Sur 0 920.3 -0.8 79
2018-10-31 13:00:00 7.9 14 Sudoeste 39 Sudoeste 0 920.7 0.4 78
2018-10-31 12:00:00 7.3 18 Sudoeste 37 Sudoeste 0 921.4 1.4 83
2018-10-31 11:00:00 6.1 18 Oeste 29 Oeste 0 921.1 1.7 88
2018-10-31 10:00:00 5.8 13 Sudoeste 30 Oeste 0 920.3 1 92
2018-10-31 09:00:00 5.1 14 Sudoeste 31 Sudoeste 0 920 1.1 93
2018-10-31 08:00:00 4.9 15 Sudoeste 28 Sudoeste 0.2 919.4 0.7 93
2018-10-31 07:00:00 4.8 17 Oeste 34 Oeste 0.8 919.3 0.5 92
2018-10-31 06:00:00 4.8 18 Sudoeste 35 Oeste 1.4 918.9 0.3 92
2018-10-31 05:00:00 5 18 Oeste 31 Oeste 0.2 918.7 0.2 92
2018-10-31 04:00:00 5 14 Sudoeste 27 Oeste 0 918.8 0.5 92
2018-10-31 03:00:00 5 13 Sudoeste 26 Oeste 0 918.6 0.3 92
2018-10-31 02:00:00 5.2 17 Oeste 27 Oeste 0 918.5 0.6 92
2018-10-31 01:00:00 5.3 13 Sudoeste 28 Oeste 0 918.3 1.3 92
2018-10-31 00:00:00 5.4 15 Sudoeste 25 Oeste 0 918.3 1.8 92
2018-10-30 23:00:00 5.5 15 Oeste 28 Oeste 0 917.9 1.8 91
2018-10-30 22:00:00 6.1 13 Oeste 27 Oeste 0.2 917 2.1 92
2018-10-30 21:00:00 5.8 4 Norte 18 Oeste 3.8 916.5 1.4 92
2018-10-30 20:00:00 6 9 Oeste 35 Oeste 4.4 916.1 0.8 92
2018-10-30 19:00:00 7.3 6 Sur 12 Sur 0 914.9 -0.6 93
2018-10-30 18:00:00 7.2 7 Sur 17 Sur 2.2 915.1 0 93
2018-10-30 17:00:00 7.5 6 Sur 36 Sur 6.4 915.3 -0.5 93
2018-10-30 16:00:00 7.7 18 Sur 41 Sur 0.8 915.5 -0.8 93
2018-10-30 15:00:00 8 15 Sur 33 Sur 0.2 915.1 -1.5 93
2018-10-30 14:00:00 7.6 15 Sur 44 Sudeste 0.2 915.8 -1.1 93
2018-10-30 13:00:00 8 17 Sur 41 Sur 0 916.3 -0.6 94
2018-10-30 12:00:00 7.8 18 Sur 40 Sur 1.4 916.6 -0.7 94
2018-10-30 11:00:00 6.8 18 Sur 43 Sur 5.8 916.9 -1 94
2018-10-30 10:00:00 6.2 18 Sur 40 Sur 1.2 916.9 -1.9 94
2018-10-30 09:00:00 5.5 17 Sur 38 Sudeste 0.8 917.3 -2.3 93
2018-10-30 08:00:00 5.1 14 Sur 31 Sur 1 917.9 -2.1 93
2018-10-30 07:00:00 4.7 13 Sur 31 Sur 0.6 918.8 -2.2 92
2018-10-30 06:00:00 4.5 16 Sur 32 Sur 1.2 919.6 -2.2 91
2018-10-30 05:00:00 5.6 12 Sur 24 Sudoeste 0.6 920 -2.1 89
2018-10-30 04:00:00 5.4 9 Sur 19 Sudoeste 0.2 921 -1.7 86
2018-10-30 03:00:00 5.7 11 Sudoeste 25 Sudoeste 0 921.8 -1.1 83
2018-10-30 02:00:00 6 17 Sudoeste 29 Sudoeste 0 922.1 -1 74
2018-10-30 01:00:00 5.2 12 Sudoeste 20 Sudoeste 0 922.7 -0.3 72
2018-10-30 00:00:00 5.6 12 Sudoeste 23 Sudoeste 0 922.9 -0.1 69
2018-10-29 23:00:00 5.5 13 Sudoeste 23 Sudoeste 0 923.1 0.3 68
2018-10-29 22:00:00 5.2 7 Sur 22 Oeste 0 923 0.5 64
2018-10-29 21:00:00 5.8 12 Oeste 19 Sudoeste 0 923 1 59
2018-10-29 20:00:00 6.1 8 Sudoeste 22 Oeste 0 922.8 1 60
2018-10-29 19:00:00 7.6 10 Oeste 23 Noroeste 0 922.5 0.9 55
2018-10-29 18:00:00 8.9 14 Noroeste 40 Oeste 0 922 0.5 49
2018-10-29 17:00:00 9.9 22 Oeste 40 Noroeste 0 921.8 0.1 46
2018-10-29 16:00:00 10.5 16 Noroeste 44 Oeste 0 921.6 -0.6 46
2018-10-29 15:00:00 9.2 19 Noroeste 41 Oeste 0.4 921.5 -1 49
2018-10-29 14:00:00 8.5 21 Oeste 38 Oeste 0 921.7 -1 55
2018-10-29 13:00:00 7.7 19 Noroeste 38 Noroeste 0 922.2 -0.3 57
2018-10-29 12:00:00 6.7 14 Noroeste 31 Noroeste 0 922.5 0.6 61
2018-10-29 11:00:00 4.9 15 Noroeste 33 Noroeste 0 922.7 1.5 70
2018-10-29 10:00:00 3.5 18 Noroeste 31 Noroeste 0 922.5 1.7 73
2018-10-29 09:00:00 1.7 13 Noroeste 22 Noroeste 0 921.9 1.2 80
2018-10-29 08:00:00 0.7 13 Oeste 26 Oeste 0 921.2 0.6 84
2018-10-29 07:00:00 0.9 10 Noroeste 22 Noroeste 0 920.8 0.1 85
2018-10-29 06:00:00 1.1 10 Noroeste 18 Noroeste 0 920.7 0 84
2018-10-29 05:00:00 1.7 10 Oeste 19 Noroeste 0 920.6 -0.1 81
2018-10-29 04:00:00 2 9 Noroeste 23 Oeste 0 920.7 -0.3 76
2018-10-29 03:00:00 2.6 10 Oeste 19 Oeste 0 920.7 -0.3 71
2018-10-29 02:00:00 2.5 8 Oeste 17 Oeste 0 920.7 0 76
2018-10-29 01:00:00 2.8 7 Oeste 11 Oeste 0 921 0.7 73
2018-10-29 00:00:00 3 6 Noroeste 14 Norte 0 921 1.3 68
2018-10-28 23:00:00 2.9 6 Noroeste 12 Norte 0 920.7 1.3 73
2018-10-28 22:00:00 3.8 7 Norte 14 Noroeste 0 920.3 1.2 70
2018-10-28 21:00:00 4 5 Noroeste 14 Noroeste 0 919.7 1.3 73
2018-10-28 20:00:00 4.5 8 Noroeste 20 Noroeste 0 919.4 1.5 72
2018-10-28 19:00:00 4 6 Norte 12 Norte 0 919.1 1.6 81
2018-10-28 18:00:00 4.7 4 Nordeste 23 Nordeste 0 918.4 1.3 77
2018-10-28 17:00:00 6.4 12 Nordeste 32 Nordeste 0 917.9 0.8 71
2018-10-28 16:00:00 7.7 17 Norte 33 Noroeste 0 917.5 0.3 60
2018-10-28 15:00:00 7.3 12 Norte 31 Noroeste 0 917.1 -0.4 66
2018-10-28 14:00:00 6.2 12 Norte 27 Nordeste 0 917.1 -0.2 74
2018-10-28 13:00:00 5.8 13 Nordeste 26 Nordeste 0 917.2 0.2 70
2018-10-28 12:00:00 3.8 12 Nordeste 32 Nordeste 0 917.5 0.7 84
2018-10-28 11:00:00 4.7 14 Norte 31 Nordeste 0 917.3 0.8 82
2018-10-28 10:00:00 4.9 17 Norte 33 Norte 4.2 917 0.3 79
2018-10-28 09:00:00 4.1 13 Norte 26 Noroeste 0 916.8 0.3 85
2018-10-28 08:00:00 2.9 8 Norte 16 Noroeste 0 916.5 0.2 88
2018-10-28 07:00:00 3.3 8 Noroeste 20 Norte 0 916.7 0.4 87
2018-10-28 06:00:00 3.5 9 Noroeste 23 Norte 0 916.5 0.1 88
2018-10-28 05:00:00 3.4 7 Noroeste 20 Noroeste 0 916.3 -0.7 86
2018-10-28 04:00:00 3.3 8 Noroeste 19 Noroeste 0 916.3 -1.1 84
2018-10-28 03:00:00 3.8 8 Noroeste 21 Noroeste 0 916.4 -1.4 80
2018-10-28 02:00:00 4.2 6 Oeste 15 Oeste 0 917 -1.3 79
2018-10-28 01:00:00 6 5 Norte 13 Noroeste 0 917.8 -0.7 80
2018-10-28 00:00:00 6.3 4 Norte 8 Norte 0 918.3 0 80
2018-10-27 23:00:00 6.8 6 Norte 13 Norte 0 918.7 0.3 77
2018-10-27 22:00:00 7.3 6 Norte 23 Noroeste 0 918.5 0.3 68
2018-10-27 21:00:00 8.4 11 Noroeste 42 Noroeste 0 918.3 -0.2 55
2018-10-27 20:00:00 9.4 18 Noroeste 44 Noroeste 0 918.4 -0.2 51
2018-10-27 19:00:00 11.5 22 Noroeste 48 Noroeste 0.2 918.2 -1.2 52
2018-10-27 18:00:00 12.2 21 Noroeste 48 Oeste 0 918.5 -1.5 68
2018-10-27 17:00:00 14.8 27 Oeste 49 Oeste 0 918.6 -3 64
2018-10-27 16:00:00 14.6 24 Noroeste 49 Oeste 0 919.4 -3.4 76
2018-10-27 15:00:00 16.3 25 Oeste 42 Oeste 0 920 -3.4 71
2018-10-27 14:00:00 14.5 17 Oeste 27 Oeste 0 921.6 -2.6 82
2018-10-27 13:00:00 14 15 Oeste 24 Oeste 0 922.8 -1.6 88
2018-10-27 12:00:00 12.9 10 Oeste 22 Oeste 0 923.4 -0.9 93
2018-10-27 11:00:00 12.5 11 Noroeste 21 Oeste 0 924.2 -0.3 94
2018-10-27 10:00:00 12 8 Oeste 17 Noroeste 0 924.4 -0.3 94
2018-10-27 09:00:00 12 8 Noroeste 23 Noroeste 0 924.3 -0.7 94
2018-10-27 08:00:00 11.8 9 Noroeste 21 Norte 0 924.5 -0.8 94
2018-10-27 07:00:00 11.8 9 Noroeste 20 Noroeste 0 924.7 -1.4 94
2018-10-27 06:00:00 11.8 10 Noroeste 23 Norte 0 925 -1.2 94
2018-10-27 05:00:00 12.1 9 Norte 22 Noroeste 0 925.3 -1.7 94
2018-10-27 04:00:00 12.2 9 Noroeste 19 Noroeste 0 926.1 -1.2 94
2018-10-27 03:00:00 12.2 8 Noroeste 19 Noroeste 0 926.2 -1.4 93
2018-10-27 02:00:00 12.4 7 Noroeste 16 Noroeste 0 927 -0.7 93
2018-10-27 01:00:00 12.5 4 Noroeste 9 Oeste 0 927.3 -0.4 92
2018-10-27 00:00:00 12.7 6 Oeste 9 Oeste 0 927.6 -0.2 92
2018-10-26 23:00:00 12.7 0 Calma 5 Noroeste 0 927.7 0.2 92
2018-10-26 22:00:00 12.6 3 Norte 10 Noroeste 0 927.7 -0.1 92
2018-10-26 21:00:00 13 4 Noroeste 11 Norte 0 927.8 -0.3 92
2018-10-26 20:00:00 13.2 4 Nordeste 7 Nordeste 0 927.5 -1 91
2018-10-26 19:00:00 13.4 3 Norte 8 Nordeste 0 927.8 -1.4 90
2018-10-26 18:00:00 13.6 3 Nordeste 6 Nordeste 0 928.1 -1.5 88
2018-10-26 17:00:00 13.6 0 Calma 11 Sudoeste 0 928.5 -2 87
2018-10-26 16:00:00 14.1 8 Sudoeste 13 Sudoeste 0 929.2 -1.4 82
2018-10-26 15:00:00 14.6 5 Sur 9 Sur 0 929.6 -1.6 81
2018-10-26 14:00:00 14.7 2 Sur 9 Este 0 930.5 -0.9 84
2018-10-26 13:00:00 14.1 5 Este 9 Noroeste 0 930.6 0 87
2018-10-26 12:00:00 13.4 6 Noroeste 15 Oeste 0 931.2 1.3 86
2018-10-26 11:00:00 13.9 10 Oeste 16 Oeste 0 931.4 1.7 76
2018-10-26 10:00:00 15 7 Sudoeste 11 Sudoeste 0 930.6 0.7 66
2018-10-26 09:00:00 14.4 3 Oeste 4 Oeste 0 929.9 -0.2 63
2018-10-26 08:00:00 14 4 Sur 5 Sur 0 929.7 -0.7 65
2018-10-26 07:00:00 13.9 5 Sur 9 Sur 0 929.9 -1.4 63
2018-10-26 06:00:00 14.3 6 Sur 10 Sur 0 930.1 -1.4 63
2018-10-26 05:00:00 14.4 6 Sur 9 Sur 0 930.4 -1.5 59
2018-10-26 04:00:00 14.1 6 Sur 9 Sur 0 931.3 -0.9 43
2018-10-26 03:00:00 14.6 6 Sur 9 Sur 0 931.5 -1 43
2018-10-26 02:00:00 15 6 Este 12 Este 0 931.9 -0.6 44
2018-10-26 01:00:00 13.9 8 Este 12 Este 0 932.2 -0.3 54
2018-10-26 00:00:00 15.4 5 Sur 10 Sudoeste 0 932.5 -0.2 49
2018-10-25 23:00:00 14.7 7 Sur 10 Sur 0 932.5 0 52
2018-10-25 22:00:00 15.3 7 Sur 12 Sur 0 932.5 0 49
2018-10-25 21:00:00 15.7 7 Sur 12 Sur 0 932.7 0.4 47
2018-10-25 20:00:00 17.6 6 Sur 11 Sur 0 932.5 -0.2 37
2018-10-25 19:00:00 20.6 7 Sur 17 Sudoeste 0 932.5 -0.2 30
2018-10-25 18:00:00 23 6 Sudeste 15 Sur 0 932.3 -1 26
2018-10-25 17:00:00 24.3 9 Sudoeste 21 Sudoeste 0 932.7 -1.4 25
2018-10-25 16:00:00 24.3 9 Sur 23 Sur 0 932.7 -1.9 31
2018-10-25 15:00:00 23.5 10 Sur 21 Sudoeste 0 933.3 -1.7 33
2018-10-25 14:00:00 23 9 Sudeste 19 Sudeste 0 934.1 -0.9 33
2018-10-25 13:00:00 21.7 8 Este 19 Nordeste 0 934.6 -0.1 38
2018-10-25 12:00:00 21 6 Sudeste 15 Sudeste 0 935 0.6 39
2018-10-25 11:00:00 19.2 5 Este 12 Este 0 935 0.6 45
2018-10-25 10:00:00 15.9 6 Sudeste 13 Sudeste 0 934.7 0.3 61
2018-10-25 09:00:00 13.2 8 Sudeste 12 Sudeste 0 934.4 -0.1 64
2018-10-25 08:00:00 15 8 Sudeste 12 Sudeste 0.2 934.4 -0.3 49
2018-10-25 07:00:00 14.1 4 Nordeste 7 Nordeste 0 934.4 -0.7 54
2018-10-25 06:00:00 13.9 6 Norte 8 Nordeste 0 934.5 -1 59
2018-10-25 05:00:00 14.5 7 Nordeste 9 Nordeste 0 934.7 -1.2 54
2018-10-25 04:00:00 13.9 6 Nordeste 9 Nordeste 0 935.1 -1.1 68
2018-10-25 03:00:00 14.4 7 Norte 13 Norte 0 935.5 -1 66
2018-10-25 02:00:00 14.8 6 Nordeste 10 Norte 0 935.9 -0.6 73
2018-10-25 01:00:00 15.3 7 Norte 10 Norte 0 936.2 -0.3 64
2018-10-25 00:00:00 15.9 6 Noroeste 12 Noroeste 0 936.5 0 61
2018-10-24 23:00:00 16.3 7 Noroeste 12 Noroeste 0 936.5 -0.1 59
2018-10-24 22:00:00 16.6 6 Noroeste 10 Oeste 0 936.5 0 63
2018-10-24 21:00:00 17.4 6 Oeste 9 Sudoeste 0 936.5 0 66
2018-10-24 20:00:00 19.3 5 Oeste 12 Sur 0 936.6 -0.1 51
2018-10-24 19:00:00 22.5 6 Sur 12 Noroeste 0 936.5 -0.7 48
2018-10-24 18:00:00 23 5 Norte 18 Norte 0 936.5 -1.5 34
2018-10-24 17:00:00 23.5 4 Sudeste 21 Nordeste 0 936.7 -2 33
2018-10-24 16:00:00 23.1 6 Este 15 Este 0 937.2 -2.2 33
2018-10-24 15:00:00 22.4 6 Norte 17 Nordeste 0 938 -1.8 38
2018-10-24 14:00:00 22.1 6 Este 12 Nordeste 0 938.7 -1.2 43
2018-10-24 13:00:00 21.2 6 Nordeste 10 Este 0 939.4 0 48
2018-10-24 12:00:00 19.8 2 Sudeste 9 Nordeste 0 939.8 0.7 61
2018-10-24 11:00:00 17.2 3 Norte 10 Noroeste 0 939.9 0.8 68
2018-10-24 10:00:00 13.9 7 Noroeste 12 Noroeste 0 939.4 0.2 91
2018-10-24 09:00:00 12.9 8 Noroeste 14 Noroeste 0 939.1 0 91
2018-10-24 08:00:00 13.1 6 Norte 16 Noroeste 0 939.1 0.1 89
2018-10-24 07:00:00 13.4 10 Noroeste 15 Noroeste 0 939.2 -0.1 89
2018-10-24 06:00:00 13.7 9 Noroeste 14 Oeste 0 939.1 -0.5 87
2018-10-24 05:00:00 13.7 9 Oeste 12 Oeste 0 939 -0.6 85
2018-10-24 04:00:00 13.5 7 Oeste 8 Oeste 0 939.3 -0.4 86
2018-10-24 03:00:00 14.2 4 Oeste 10 Noroeste 0 939.6 -0.3 82
2018-10-24 02:00:00 14.8 6 Norte 11 Noroeste 0 939.6 -0.2 78
2018-10-24 01:00:00 15.3 6 Oeste 10 Oeste 0 939.7 0.4 76
2018-10-24 00:00:00 15.4 6 Oeste 12 Oeste 0 939.9 0.7 75
2018-10-23 23:00:00 15.9 8 Oeste 12 Sudoeste 0 939.8 0.9 73
2018-10-23 22:00:00 16.4 8 Sudoeste 12 Sudoeste 0 939.3 0.9 70
2018-10-23 21:00:00 17 6 Sudoeste 9 Sudoeste 0 939.2 0.9 66
2018-10-23 20:00:00 19 5 Sudoeste 11 Sudoeste 0.2 938.9 0.5 58
2018-10-23 19:00:00 21.8 6 Sudoeste 12 Sudoeste 0 938.4 -0.1 46
2018-10-23 18:00:00 22 3 Sur 15 Sudoeste 0 938.3 -0.4 47
2018-10-23 17:00:00 21.9 8 Oeste 20 Sudoeste 0 938.4 -0.7 47
2018-10-23 16:00:00 21.5 7 Sudoeste 21 Sudoeste 0 938.5 -0.7 48
2018-10-23 15:00:00 22.2 8 Sudoeste 19 Oeste 0 938.7 -0.6 49
2018-10-23 14:00:00 21.3 6 Sudoeste 13 Sur 0 939.1 0.1 54
2018-10-23 13:00:00 20.9 6 Sudoeste 13 Sudoeste 0 939.2 0.9 56
2018-10-23 12:00:00 19.3 6 Sudeste 15 Este 0 939.3 1.5 60
2018-10-23 11:00:00 17.4 8 Este 19 Este 0 939 1.9 66
2018-10-23 10:00:00 15.8 7 Este 14 Sudeste 0 938.3 1.7 75
2018-10-23 09:00:00 14.4 6 Sudeste 12 Este 0 937.8 1.3 88
2018-10-23 08:00:00 13.6 6 Este 10 Este 0 937.1 0.2 90
2018-10-23 07:00:00 14.4 5 Sudeste 14 Sudeste 0 936.6 0.2 86
2018-10-23 06:00:00 14.4 6 Sudeste 17 Sur 0 936.5 0.2 87
2018-10-23 05:00:00 14.4 9 Sur 16 Sur 0 936.9 0.2 84
2018-10-23 04:00:00 14.9 8 Sur 16 Sur 0.2 936.4 -0.2 80
2018-10-23 03:00:00 15.9 8 Sudeste 15 Sudeste 0 936.3 0 75
2018-10-23 02:00:00 16.5 4 Sudeste 6 Sudeste 0 936.7 0.5 67
2018-10-23 01:00:00 16.2 3 Sur 6 Este 0 936.6 0.7 69
2018-10-23 00:00:00 16.3 4 Este 6 Norte 0 936.3 0.9 70
2018-10-22 23:00:00 16.3 5 Noroeste 9 Noroeste 0 936.2 1.1 76
2018-10-22 22:00:00 16.7 4 Noroeste 9 Norte 0 935.9 1 72
2018-10-22 21:00:00 17.2 5 Norte 9 Noroeste 0 935.4 0.8 69
2018-10-22 20:00:00 17.9 6 Noroeste 15 Noroeste 0 935.1 0.8 66
2018-10-22 19:00:00 19.5 6 Norte 21 Nordeste 0.2 934.9 0.3 51
2018-10-22 18:00:00 22.6 6 Noroeste 15 Nordeste 0 934.6 -0.4 47
2018-10-22 17:00:00 21.8 5 Norte 17 Nordeste 0 934.3 -1.1 52
2018-10-22 16:00:00 20.9 4 Norte 19 Nordeste 0 934.6 -1.3 55
2018-10-22 15:00:00 21.8 10 Noroeste 39 Norte 0 935 -0.9 53
2018-10-22 14:00:00 20.6 6 Norte 16 Nordeste 0 935.4 -0.4 56
2018-10-22 13:00:00 19.7 8 Norte 15 Noroeste 0 935.9 0.4 58
2018-10-22 12:00:00 19.6 3 Sudoeste 7 Sur 0 935.9 1 56
2018-10-22 11:00:00 17.8 4 Sudeste 10 Sur 0.2 935.8 1 63
2018-10-22 10:00:00 15.1 6 Sur 13 Sudeste 0 935.5 0.8 76
2018-10-22 09:00:00 13.9 8 Sudeste 15 Sudeste 0 934.9 0.5 74
2018-10-22 08:00:00 12.5 7 Este 10 Este 0 934.8 0.3 85
2018-10-22 07:00:00 12.3 7 Nordeste 11 Nordeste 0 934.7 -0.2 87
2018-10-22 06:00:00 12.2 7 Nordeste 14 Norte 0 934.4 -0.6 89
2018-10-22 05:00:00 12.3 8 Norte 14 Norte 0 934.5 -0.5 90
2018-10-22 04:00:00 12.8 7 Noroeste 15 Noroeste 0.2 934.9 -0.1 87
2018-10-22 03:00:00 12.8 6 Noroeste 19 Norte 0 935 -0.1 90
2018-10-22 02:00:00 12.7 8 Norte 23 Nordeste 0.2 935 0 90
2018-10-22 01:00:00 12.7 9 Norte 18 Nordeste 0 935 1.5 91
2018-10-22 00:00:00 12.8 10 Oeste 26 Sudoeste 0 935.1 1.8 88
2018-10-21 23:00:00 14 18 Oeste 43 Sudoeste 0 935 1.8 77
2018-10-21 22:00:00 16 8 Noroeste 17 Norte 0 933.5 0.8 75
2018-10-21 21:00:00 16.4 9 Norte 17 Noroeste 0 933.3 0.8 74
2018-10-21 20:00:00 16.9 8 Noroeste 15 Norte 0 933.2 0.4 72
2018-10-21 19:00:00 18.8 9 Noroeste 15 Norte 0 932.7 -0.5 65
2018-10-21 18:00:00 19.5 10 Noroeste 21 Noroeste 0 932.5 -0.9 61
2018-10-21 17:00:00 19.1 12 Noroeste 19 Norte 0 932.8 -1.2 62
2018-10-21 16:00:00 18.5 10 Oeste 18 Oeste 0 933.2 -1 68
2018-10-21 15:00:00 18.9 12 Oeste 16 Oeste 0 933.4 -0.7 67
2018-10-21 14:00:00 19.2 4 Sudoeste 8 Sudoeste 0 934 -0.1 65
2018-10-21 13:00:00 18.2 3 Sur 10 Sur 0 934.2 0.5 68
2018-10-21 12:00:00 17.2 6 Sudeste 14 Este 0 934.1 0.8 69
2018-10-21 11:00:00 16.3 7 Este 18 Este 0 934.1 1.2 69
2018-10-21 10:00:00 15.7 8 Este 19 Este 0 933.7 0.8 71
2018-10-21 09:00:00 15.2 9 Sudeste 20 Sudeste 0 933.3 1 73
2018-10-21 08:00:00 15.1 10 Sudeste 18 Sudeste 0 932.9 0.5 72
2018-10-21 07:00:00 14.7 8 Sudeste 18 Sudeste 0 932.9 0.5 73
2018-10-21 06:00:00 14.7 6 Sudeste 17 Sudeste 0 932.3 -0.3 72
2018-10-21 05:00:00 14.9 7 Sudeste 18 Este 0 932.4 0 70
2018-10-21 04:00:00 14.6 8 Sudeste 14 Este 0 932.4 -0.2 71
2018-10-21 03:00:00 14.9 7 Este 19 Este 0 932.6 -0.2 70
2018-10-21 02:00:00 14.9 8 Sudeste 15 Este 0 932.4 0.8 71
2018-10-21 01:00:00 15.3 7 Sudeste 21 Sudeste 0 932.6 1.6 71
2018-10-21 00:00:00 14.9 9 Sudeste 22 Sudeste 0 932.8 1.7 75
2018-10-20 23:00:00 14.8 8 Este 22 Este 0 931.6 1 76
2018-10-20 22:00:00 14.8 10 Este 23 Este 0 931 0.7 75
2018-10-20 21:00:00 14.6 10 Este 20 Este 0.2 931.1 1.2 79
2018-10-20 20:00:00 14.3 8 Este 15 Este 0 930.6 0.4 84
2018-10-20 19:00:00 15.2 7 Este 12 Este 0.2 930.3 -0.8 81
2018-10-20 18:00:00 14.9 4 Norte 18 Norte 0.2 929.9 -1.5 84
2018-10-20 17:00:00 14.3 10 Nordeste 19 Nordeste 0.4 930.2 -1.3 85
2018-10-20 16:00:00 14.2 6 Este 20 Este 0.2 931.1 -0.5 84
2018-10-20 15:00:00 14.7 10 Este 28 Este 0 931.4 0.2 77
2018-10-20 14:00:00 16.4 14 Sudeste 31 Sudeste 0 931.5 0.9 60
2018-10-20 13:00:00 16.6 12 Sudeste 26 Sudeste 0 931.6 1.2 58
2018-10-20 12:00:00 16.2 8 Este 24 Sudeste 0 931.2 1.9 61
2018-10-20 11:00:00 14.9 6 Nordeste 13 Nordeste 0 930.6 1.2 66
2018-10-20 10:00:00 10.8 7 Nordeste 19 Este 0 930.4 1.1 81
2018-10-20 09:00:00 10.7 8 Nordeste 18 Este 0 929.3 0.2 77
2018-10-20 08:00:00 10.8 6 Este 18 Este 0 929.4 0.3 78
2018-10-20 07:00:00 10.8 9 Este 17 Este 0 929.3 0.2 82
2018-10-20 06:00:00 11.2 9 Este 21 Este 0 929.1 0.1 83
2018-10-20 05:00:00 11.8 10 Este 20 Este 0 929.1 -0.1 81
2018-10-20 04:00:00 11.3 8 Este 17 Este 0 929.1 -0.1 81
2018-10-20 03:00:00 10.5 7 Nordeste 12 Este 0 929 -0.2 76
2018-10-20 02:00:00 10.7 5 Nordeste 9 Este 0 929.2 -0.1 75
2018-10-20 01:00:00 11 6 Nordeste 9 Nordeste 0 929.2 0.3 78
2018-10-20 00:00:00 12.4 5 Este 8 Este 0 929.2 0.7 73
2018-10-19 23:00:00 12.8 4 Sudeste 6 Sudeste 0 929.3 1.7 71
2018-10-19 22:00:00 12.3 4 Sur 8 Sur 0 928.9 2.1 71
2018-10-19 21:00:00 13.1 5 Sur 10 Sur 0 928.5 1.9 64
2018-10-19 20:00:00 15.6 3 Sur 10 Este 0 927.6 1 51
2018-10-19 19:00:00 17 4 Sudeste 18 Este 0 926.8 0.1 47
2018-10-19 18:00:00 16.4 7 Este 22 Nordeste 0 926.6 -0.3 53
2018-10-19 17:00:00 18 10 Este 22 Nordeste 0 926.6 -0.7 49
2018-10-19 16:00:00 16.8 9 Nordeste 18 Nordeste 0 926.7 -0.5 55
2018-10-19 15:00:00 15.3 9 Este 20 Este 0 926.9 0.4 61
2018-10-19 14:00:00 14.4 8 Nordeste 15 Nordeste 0 927.3 0.7 76
2018-10-19 13:00:00 13.6 12 Nordeste 25 Sudeste 0 927.2 0.9 82
2018-10-19 12:00:00 14.9 11 Sudeste 23 Sudeste 0 926.5 0.7 74
2018-10-19 11:00:00 11.6 9 Este 20 Este 0 926.6 1.5 89
2018-10-19 10:00:00 9.4 4 Este 11 Sudeste 0 926.3 1.3 93
2018-10-19 09:00:00 8.5 5 Este 11 Nordeste 0 925.8 0.8 93
2018-10-19 08:00:00 8.4 5 Norte 8 Norte 0.2 925.1 0.3 92
2018-10-19 07:00:00 9.2 5 Nordeste 13 Noroeste 1 925 -0.1 92
2018-10-19 06:00:00 9.5 0 Calma 7 Sudeste 1 925 0 91
2018-10-19 05:00:00 9.6 3 Sudeste 6 Sudeste 0.8 924.8 0.2 90
2018-10-19 04:00:00 9.7 3 Sur 7 Sur 0.4 925.1 -0.4 91
2018-10-19 03:00:00 9.6 2 Nordeste 7 Norte 0 925 -1 91
2018-10-19 02:00:00 9.6 2 Sudoeste 6 Norte 0 924.6 -1.2 91
2018-10-19 01:00:00 9.7 3 Sur 7 Sur 0.6 925.5 0 90
2018-10-19 00:00:00 9.7 2 Sur 10 Nordeste 0.8 926 0.9 90
2018-10-18 23:00:00 9.7 2 Sudeste 11 Sur 0 925.8 1.4 87
2018-10-18 22:00:00 9.9 3 Sur 13 Sudeste 0.4 925.5 1.9 86
2018-10-18 21:00:00 10.4 7 Sudeste 14 Sudeste 0 925.1 1.6 82
2018-10-18 20:00:00 10.8 4 Este 10 Sudeste 0 924.4 1 77
2018-10-18 19:00:00 10.9 6 Sudeste 14 Sudeste 0 923.6 0.6 78
2018-10-18 18:00:00 11.3 10 Sur 19 Sur 0.2 923.5 0.6 79
2018-10-18 17:00:00 11.4 8 Nordeste 30 Sur 0.2 923.4 0.3 81
2018-10-18 16:00:00 11 18 Sudoeste 41 Sur 1.2 923 -0.4 84
2018-10-18 15:00:00 12.8 18 Sudoeste 31 Sudoeste 0.2 922.9 -0.1 81
2018-10-18 14:00:00 15.3 10 Sudoeste 21 Sudoeste 0 923.1 0 78
2018-10-18 13:00:00 13.8 12 Sudoeste 22 Sudoeste 0 923.4 0.3 85
2018-10-18 12:00:00 13.7 8 Este 21 Este 0 923 0 84
2018-10-18 11:00:00 13.7 11 Este 22 Nordeste 0 923.1 0 87
2018-10-18 10:00:00 13.2 5 Sudeste 11 Sudeste 0.2 923.1 -0.8 91
2018-10-18 09:00:00 12.8 6 Este 18 Sur 0.4 923 -0.8 92
2018-10-18 08:00:00 12.8 7 Sur 19 Sur 0 923.1 -1.4 92
2018-10-18 07:00:00 12.8 8 Sur 19 Sur 0 923.9 -1.6 89
2018-10-18 06:00:00 12.8 4 Este 14 Sudeste 0 923.8 -2.2 84
2018-10-18 05:00:00 13.3 8 Sudeste 15 Sudeste 0 924.5 -2.4 81
2018-10-18 04:00:00 13.9 5 Sur 14 Sudeste 0 925.5 -2 72
2018-10-18 03:00:00 14.9 6 Sudeste 11 Sudeste 0 926 -2 66
2018-10-18 02:00:00 14.9 4 Este 11 Noroeste 0 926.9 -1.6 65
2018-10-18 01:00:00 15.3 5 Sudoeste 14 Sudoeste 0 927.5 -1.1 62
2018-10-18 00:00:00 15.8 7 Sudoeste 13 Sudoeste 0 928 -0.7 62